IGO134 VOHS-VAAH
Flight info
| Callsign | IGO134 |
|---|---|
| Flight time | 1h 34m |
| Altitude | 36000 |
| Route | TAMIV5 APUSU W18 MELAX W75 AAU J19 QQZ QQZ1A |
| Aircraft | A20N/M-SDE2E3FGHIRWXY/LB1 |
Departure
| Time | 2026-04-27 13:03 |
|---|---|
| Airport | Rajiv Gandhi International Airport (VOHS) |
Arrival
| Time | 2026-04-27 14:38 |
|---|---|
| Airport | Sardar Vallabh Patel International Airport (VAAH) |
| Time | Latitude | Longitude | Altitude | Speed | Heading |
|---|---|---|---|---|---|
| 2026-04-27 12:41 | 17.23450 | 78.42732 | 2006 ft | 0 kts | 360° |
| 2026-04-27 12:49 | 17.23436 | 78.42732 | 2004 ft | 2 kts | 0° |
| 2026-04-27 12:49 | 17.23420 | 78.42732 | 2004 ft | 2 kts | 1° |
| 2026-04-27 12:49 | 17.23403 | 78.42732 | 2004 ft | 2 kts | 2° |
| 2026-04-27 12:49 | 17.23387 | 78.42731 | 2005 ft | 2 kts | 5° |
| 2026-04-27 12:50 | 17.23370 | 78.42729 | 2003 ft | 2 kts | 7° |
| 2026-04-27 12:50 | 17.23354 | 78.42726 | 2005 ft | 2 kts | 13° |
| 2026-04-27 12:50 | 17.23338 | 78.42720 | 2004 ft | 2 kts | 30° |
| 2026-04-27 12:50 | 17.23327 | 78.42708 | 2003 ft | 2 kts | 72° |
| 2026-04-27 12:51 | 17.23325 | 78.42698 | 2003 ft | 1 kts | 88° |
| 2026-04-27 12:56 | 17.23326 | 78.42701 | 2006 ft | 3 kts | 88° |
| 2026-04-27 12:56 | 17.23326 | 78.42765 | 2007 ft | 15 kts | 91° |
| 2026-04-27 12:57 | 17.23327 | 78.42900 | 2007 ft | 21 kts | 89° |
| 2026-04-27 12:57 | 17.23327 | 78.43065 | 2007 ft | 24 kts | 95° |
| 2026-04-27 12:57 | 17.23300 | 78.43161 | 2010 ft | 8 kts | 178° |
| 2026-04-27 12:57 | 17.23226 | 78.43164 | 2010 ft | 13 kts | 182° |
| 2026-04-27 12:58 | 17.23123 | 78.43170 | 2008 ft | 17 kts | 170° |
| 2026-04-27 12:58 | 17.23088 | 78.43237 | 2013 ft | 12 kts | 90° |
| 2026-04-27 12:58 | 17.23089 | 78.43357 | 2014 ft | 23 kts | 88° |
| 2026-04-27 12:58 | 17.23093 | 78.43552 | 2017 ft | 26 kts | 89° |
| 2026-04-27 12:59 | 17.23095 | 78.43733 | 2020 ft | 24 kts | 89° |
| 2026-04-27 12:59 | 17.23098 | 78.43896 | 2032 ft | 22 kts | 88° |
| 2026-04-27 12:59 | 17.23099 | 78.44043 | 2033 ft | 19 kts | 90° |
| 2026-04-27 12:59 | 17.23101 | 78.44174 | 2031 ft | 17 kts | 89° |
| 2026-04-27 13:00 | 17.23103 | 78.44288 | 2028 ft | 15 kts | 88° |
| 2026-04-27 13:00 | 17.23105 | 78.44388 | 2030 ft | 15 kts | 88° |
| 2026-04-27 13:00 | 17.23107 | 78.44529 | 2032 ft | 24 kts | 88° |
| 2026-04-27 13:00 | 17.23107 | 78.44735 | 2037 ft | 33 kts | 89° |
| 2026-04-27 13:01 | 17.23088 | 78.44913 | 2043 ft | 16 kts | 137° |
| 2026-04-27 13:01 | 17.23025 | 78.44928 | 2035 ft | 0 kts | 180° |
| 2026-04-27 13:02 | 17.23020 | 78.44928 | 2043 ft | 4 kts | 179° |
| 2026-04-27 13:02 | 17.22953 | 78.44922 | 2037 ft | 14 kts | 197° |
| 2026-04-27 13:02 | 17.22907 | 78.44855 | 2037 ft | 11 kts | 269° |
| 2026-04-27 13:02 | 17.22908 | 78.44822 | 2032 ft | 18 kts | 272° |
| 2026-04-27 13:03 | 17.22901 | 78.44458 | 2031 ft | 82 kts | 269° |
| 2026-04-27 13:03 | 17.22897 | 78.43655 | 2013 ft | 138 kts | 271° |
| 2026-04-27 13:03 | 17.22873 | 78.42494 | 2036 ft | 175 kts | 268° |
| 2026-04-27 13:03 | 17.22836 | 78.41250 | 2628 ft | 168 kts | 268° |
| 2026-04-27 13:04 | 17.22814 | 78.39997 | 3005 ft | 178 kts | 270° |
| 2026-04-27 13:04 | 17.22809 | 78.38682 | 3402 ft | 182 kts | 269° |
| 2026-04-27 13:04 | 17.22800 | 78.37357 | 3772 ft | 191 kts | 269° |
| 2026-04-27 13:04 | 17.22783 | 78.35898 | 3952 ft | 210 kts | 269° |
| 2026-04-27 13:05 | 17.22759 | 78.34300 | 4134 ft | 227 kts | 269° |
| 2026-04-27 13:05 | 17.22847 | 78.32612 | 4396 ft | 240 kts | 278° |
| 2026-04-27 13:05 | 17.23225 | 78.30825 | 4605 ft | 263 kts | 285° |
| 2026-04-27 13:05 | 17.23749 | 78.28928 | 5033 ft | 276 kts | 287° |
| 2026-04-27 13:06 | 17.24310 | 78.26995 | 5723 ft | 278 kts | 287° |
| 2026-04-27 13:06 | 17.24874 | 78.25064 | 6456 ft | 278 kts | 287° |
| 2026-04-27 13:06 | 17.25444 | 78.23113 | 7158 ft | 280 kts | 287° |
| 2026-04-27 13:06 | 17.26009 | 78.21175 | 7844 ft | 283 kts | 287° |
| 2026-04-27 13:07 | 17.26584 | 78.19198 | 8558 ft | 285 kts | 287° |
| 2026-04-27 13:07 | 17.27160 | 78.17208 | 9282 ft | 287 kts | 287° |
| 2026-04-27 13:07 | 17.27742 | 78.15194 | 9983 ft | 290 kts | 288° |
| 2026-04-27 13:07 | 17.28336 | 78.13136 | 10433 ft | 303 kts | 288° |
| 2026-04-27 13:08 | 17.28967 | 78.10950 | 10687 ft | 322 kts | 288° |
| 2026-04-27 13:08 | 17.29626 | 78.08651 | 11077 ft | 334 kts | 288° |
| 2026-04-27 13:08 | 17.30296 | 78.06307 | 11625 ft | 339 kts | 288° |
| 2026-04-27 13:08 | 17.30978 | 78.03927 | 12210 ft | 343 kts | 288° |
| 2026-04-27 13:09 | 17.31668 | 78.01520 | 12820 ft | 347 kts | 288° |
| 2026-04-27 13:09 | 17.32369 | 77.99083 | 13446 ft | 350 kts | 288° |
| 2026-04-27 13:09 | 17.33073 | 77.96640 | 14031 ft | 353 kts | 288° |
| 2026-04-27 13:09 | 17.33780 | 77.94191 | 14627 ft | 356 kts | 288° |
| 2026-04-27 13:10 | 17.34499 | 77.91703 | 15249 ft | 358 kts | 288° |
| 2026-04-27 13:10 | 17.35225 | 77.89192 | 15880 ft | 360 kts | 287° |
| 2026-04-27 13:10 | 17.35954 | 77.86674 | 16512 ft | 362 kts | 287° |
| 2026-04-27 13:10 | 17.36679 | 77.84173 | 17097 ft | 365 kts | 287° |
| 2026-04-27 13:11 | 17.36834 | 77.83636 | 17226 ft | 366 kts | 287° |
| 2026-04-27 13:11 | 17.37515 | 77.81287 | 17742 ft | 369 kts | 287° |
| 2026-04-27 13:11 | 17.38261 | 77.78716 | 18277 ft | 372 kts | 286° |
| 2026-04-27 13:12 | 17.39014 | 77.76114 | 18754 ft | 374 kts | 286° |
| 2026-04-27 13:12 | 17.39771 | 77.73492 | 19236 ft | 377 kts | 286° |
| 2026-04-27 13:12 | 17.40531 | 77.70858 | 19724 ft | 379 kts | 286° |
| 2026-04-27 13:12 | 17.41292 | 77.68214 | 20221 ft | 380 kts | 286° |
| 2026-04-27 13:13 | 17.42050 | 77.65581 | 20697 ft | 383 kts | 285° |
| 2026-04-27 13:13 | 17.42821 | 77.62902 | 21194 ft | 385 kts | 285° |
| 2026-04-27 13:13 | 17.43552 | 77.60196 | 21686 ft | 387 kts | 282° |
| 2026-04-27 13:13 | 17.44088 | 77.57436 | 22172 ft | 388 kts | 278° |
| 2026-04-27 13:14 | 17.44508 | 77.54635 | 22682 ft | 390 kts | 277° |
| 2026-04-27 13:14 | 17.44888 | 77.51817 | 23171 ft | 392 kts | 276° |
| 2026-04-27 13:14 | 17.45257 | 77.48974 | 23628 ft | 394 kts | 276° |
| 2026-04-27 13:14 | 17.45623 | 77.46125 | 24067 ft | 395 kts | 276° |
| 2026-04-27 13:15 | 17.45988 | 77.43268 | 24525 ft | 396 kts | 276° |
| 2026-04-27 13:15 | 17.46352 | 77.40412 | 24973 ft | 396 kts | 276° |
| 2026-04-27 13:15 | 17.46717 | 77.37545 | 25412 ft | 397 kts | 276° |
| 2026-04-27 13:15 | 17.47083 | 77.34672 | 25843 ft | 398 kts | 276° |
| 2026-04-27 13:16 | 17.47443 | 77.31833 | 26256 ft | 399 kts | 276° |
| 2026-04-27 13:16 | 17.47809 | 77.28949 | 26674 ft | 399 kts | 276° |
| 2026-04-27 13:16 | 17.48175 | 77.26061 | 27081 ft | 400 kts | 276° |
| 2026-04-27 13:16 | 17.48543 | 77.23157 | 27476 ft | 401 kts | 276° |
| 2026-04-27 13:17 | 17.48910 | 77.20256 | 27860 ft | 402 kts | 276° |
| 2026-04-27 13:17 | 17.49274 | 77.17378 | 28241 ft | 403 kts | 276° |
| 2026-04-27 13:17 | 17.49641 | 77.14465 | 28618 ft | 404 kts | 276° |
| 2026-04-27 13:17 | 17.50009 | 77.11549 | 28996 ft | 404 kts | 276° |
| 2026-04-27 13:18 | 17.50378 | 77.08616 | 29356 ft | 406 kts | 276° |
| 2026-04-27 13:18 | 17.50746 | 77.05692 | 29721 ft | 406 kts | 276° |
| 2026-04-27 13:18 | 17.51116 | 77.02743 | 30047 ft | 407 kts | 276° |
| 2026-04-27 13:18 | 17.51486 | 76.99792 | 30313 ft | 409 kts | 276° |
| 2026-04-27 13:19 | 17.51858 | 76.96830 | 30560 ft | 411 kts | 276° |
| 2026-04-27 13:19 | 17.52233 | 76.93851 | 30801 ft | 413 kts | 276° |
| 2026-04-27 13:19 | 17.52603 | 76.90904 | 31105 ft | 413 kts | 276° |
| 2026-04-27 13:19 | 17.52978 | 76.87922 | 31476 ft | 412 kts | 276° |
| 2026-04-27 13:20 | 17.53351 | 76.84950 | 31835 ft | 410 kts | 276° |
| 2026-04-27 13:20 | 17.53723 | 76.81985 | 32173 ft | 410 kts | 275° |
| 2026-04-27 13:20 | 17.54094 | 76.79026 | 32507 ft | 409 kts | 275° |
| 2026-04-27 13:20 | 17.54477 | 76.76061 | 32828 ft | 409 kts | 276° |
| 2026-04-27 13:21 | 17.55076 | 76.73131 | 33145 ft | 411 kts | 283° |
| 2026-04-27 13:21 | 17.56127 | 76.70370 | 33454 ft | 416 kts | 293° |
| 2026-04-27 13:21 | 17.57701 | 76.67786 | 33741 ft | 423 kts | 303° |
| 2026-04-27 13:21 | 17.59722 | 76.65513 | 33986 ft | 430 kts | 313° |
| 2026-04-27 13:22 | 17.62150 | 76.63626 | 34232 ft | 439 kts | 322° |
| 2026-04-27 13:22 | 17.64808 | 76.62099 | 34490 ft | 442 kts | 326° |
| 2026-04-27 13:22 | 17.67564 | 76.60652 | 34748 ft | 442 kts | 327° |
| 2026-04-27 13:22 | 17.70331 | 76.59209 | 34995 ft | 442 kts | 326° |
| 2026-04-27 13:23 | 17.73077 | 76.57757 | 35242 ft | 441 kts | 326° |
| 2026-04-27 13:23 | 17.75812 | 76.56293 | 35480 ft | 440 kts | 326° |
| 2026-04-27 13:23 | 17.78537 | 76.54821 | 35722 ft | 440 kts | 325° |
| 2026-04-27 13:23 | 17.81255 | 76.53346 | 35789 ft | 437 kts | 325° |
| 2026-04-27 13:24 | 17.86569 | 76.50451 | 35794 ft | 430 kts | 325° |
| 2026-04-27 13:24 | 17.91860 | 76.47558 | 35797 ft | 429 kts | 325° |
| 2026-04-27 13:25 | 17.97166 | 76.44657 | 35795 ft | 429 kts | 324° |
| 2026-04-27 13:25 | 18.02451 | 76.41812 | 35792 ft | 430 kts | 326° |
| 2026-04-27 13:26 | 18.07826 | 76.39021 | 35795 ft | 430 kts | 326° |
| 2026-04-27 13:26 | 18.13189 | 76.36234 | 35795 ft | 430 kts | 326° |
| 2026-04-27 13:27 | 18.18515 | 76.33443 | 35790 ft | 429 kts | 325° |
| 2026-04-27 13:27 | 18.23865 | 76.30623 | 35789 ft | 429 kts | 325° |
| 2026-04-27 13:28 | 18.29186 | 76.27812 | 35793 ft | 429 kts | 325° |
| 2026-04-27 13:28 | 18.34539 | 76.24982 | 35795 ft | 429 kts | 325° |
| 2026-04-27 13:29 | 18.39841 | 76.22177 | 35795 ft | 429 kts | 325° |
| 2026-04-27 13:29 | 18.45187 | 76.19348 | 35800 ft | 429 kts | 325° |
| 2026-04-27 13:30 | 18.50486 | 76.16542 | 35801 ft | 428 kts | 325° |
| 2026-04-27 13:30 | 18.55820 | 76.13715 | 35800 ft | 428 kts | 325° |
| 2026-04-27 13:31 | 18.61159 | 76.10884 | 35802 ft | 428 kts | 325° |
| 2026-04-27 13:31 | 18.66450 | 76.08076 | 35800 ft | 428 kts | 325° |
| 2026-04-27 13:32 | 18.71772 | 76.05250 | 35801 ft | 428 kts | 324° |
| 2026-04-27 13:32 | 18.77102 | 76.02416 | 35798 ft | 428 kts | 324° |
| 2026-04-27 13:33 | 18.82421 | 75.99586 | 35794 ft | 428 kts | 324° |
| 2026-04-27 13:33 | 18.87715 | 75.96768 | 35795 ft | 428 kts | 324° |
| 2026-04-27 13:34 | 18.93042 | 75.93929 | 35795 ft | 428 kts | 324° |
| 2026-04-27 13:34 | 18.98371 | 75.91088 | 35793 ft | 428 kts | 324° |
| 2026-04-27 13:35 | 19.03652 | 75.88271 | 35791 ft | 427 kts | 324° |
| 2026-04-27 13:35 | 19.08952 | 75.85440 | 35784 ft | 427 kts | 324° |
| 2026-04-27 13:36 | 19.14271 | 75.82597 | 35785 ft | 427 kts | 324° |
| 2026-04-27 13:36 | 19.19557 | 75.79771 | 35782 ft | 427 kts | 324° |
| 2026-04-27 13:37 | 19.24854 | 75.76937 | 35785 ft | 426 kts | 324° |
| 2026-04-27 13:37 | 19.30154 | 75.74098 | 35786 ft | 426 kts | 324° |
| 2026-04-27 13:38 | 19.35421 | 75.71276 | 35785 ft | 426 kts | 324° |
| 2026-04-27 13:38 | 19.40713 | 75.68438 | 35789 ft | 425 kts | 324° |
| 2026-04-27 13:39 | 19.45965 | 75.65619 | 35787 ft | 425 kts | 324° |
| 2026-04-27 13:39 | 19.51214 | 75.62742 | 35793 ft | 423 kts | 322° |
| 2026-04-27 13:40 | 19.56283 | 75.59629 | 35799 ft | 420 kts | 320° |
| 2026-04-27 13:40 | 19.61306 | 75.56430 | 35794 ft | 420 kts | 320° |
| 2026-04-27 13:41 | 19.66299 | 75.53264 | 35795 ft | 420 kts | 320° |
| 2026-04-27 13:41 | 19.71337 | 75.50099 | 35804 ft | 420 kts | 320° |
| 2026-04-27 13:42 | 19.75528 | 75.47476 | 35811 ft | 420 kts | 320° |
| 2026-04-27 13:42 | 19.80552 | 75.44334 | 35802 ft | 420 kts | 320° |
| 2026-04-27 13:43 | 19.86339 | 75.40606 | 35812 ft | 414 kts | 316° |
| 2026-04-27 13:43 | 19.90221 | 75.37631 | 35803 ft | 412 kts | 314° |
| 2026-04-27 13:44 | 19.94814 | 75.33983 | 35801 ft | 412 kts | 314° |
| 2026-04-27 13:44 | 19.99428 | 75.30333 | 35810 ft | 412 kts | 314° |
| 2026-04-27 13:45 | 20.04049 | 75.26719 | 35820 ft | 412 kts | 314° |
| 2026-04-27 13:45 | 20.08642 | 75.23146 | 35833 ft | 412 kts | 314° |
| 2026-04-27 13:46 | 20.13276 | 75.19547 | 35832 ft | 412 kts | 314° |
| 2026-04-27 13:46 | 20.17910 | 75.15944 | 35822 ft | 411 kts | 314° |
| 2026-04-27 13:47 | 20.22511 | 75.12363 | 35821 ft | 411 kts | 314° |
| 2026-04-27 13:47 | 20.27137 | 75.08759 | 35820 ft | 411 kts | 314° |
| 2026-04-27 13:48 | 20.31756 | 75.05157 | 35822 ft | 411 kts | 314° |
| 2026-04-27 13:48 | 20.36372 | 75.01554 | 35821 ft | 411 kts | 314° |
| 2026-04-27 13:49 | 20.40968 | 74.97965 | 35821 ft | 411 kts | 314° |
| 2026-04-27 13:49 | 20.45591 | 74.94351 | 35817 ft | 411 kts | 314° |
| 2026-04-27 13:50 | 20.50183 | 74.90758 | 35815 ft | 411 kts | 314° |
| 2026-04-27 13:50 | 20.54797 | 74.87145 | 35817 ft | 411 kts | 315° |
| 2026-04-27 13:51 | 20.59395 | 74.83541 | 35812 ft | 411 kts | 315° |
| 2026-04-27 13:51 | 20.64013 | 74.79918 | 35813 ft | 411 kts | 315° |
| 2026-04-27 13:52 | 20.68614 | 74.76320 | 35807 ft | 411 kts | 315° |
| 2026-04-27 13:52 | 20.73245 | 74.72723 | 35809 ft | 411 kts | 315° |
| 2026-04-27 13:53 | 20.80196 | 74.67331 | 35809 ft | 411 kts | 315° |
| 2026-04-27 13:54 | 20.84831 | 74.63731 | 35809 ft | 411 kts | 315° |
| 2026-04-27 13:54 | 20.89417 | 74.60165 | 35808 ft | 411 kts | 315° |
| 2026-04-27 13:55 | 20.94054 | 74.56556 | 35809 ft | 411 kts | 315° |
| 2026-04-27 13:55 | 20.98687 | 74.52946 | 35810 ft | 411 kts | 316° |
| 2026-04-27 13:56 | 21.03283 | 74.49364 | 35806 ft | 411 kts | 316° |
| 2026-04-27 13:56 | 21.07916 | 74.45749 | 35805 ft | 411 kts | 316° |
| 2026-04-27 13:57 | 21.12540 | 74.42139 | 35805 ft | 411 kts | 316° |
| 2026-04-27 13:57 | 21.17146 | 74.38540 | 35800 ft | 411 kts | 316° |
| 2026-04-27 13:58 | 21.21773 | 74.34923 | 35796 ft | 411 kts | 316° |
| 2026-04-27 13:58 | 21.26401 | 74.31301 | 35791 ft | 411 kts | 316° |
| 2026-04-27 13:59 | 21.31031 | 74.27675 | 35787 ft | 411 kts | 316° |
| 2026-04-27 13:59 | 21.35278 | 74.23711 | 35781 ft | 405 kts | 309° |
| 2026-04-27 14:00 | 21.39332 | 74.19548 | 35785 ft | 405 kts | 309° |
| 2026-04-27 14:00 | 21.43410 | 74.15354 | 35783 ft | 405 kts | 309° |
| 2026-04-27 14:01 | 21.47481 | 74.11177 | 35783 ft | 405 kts | 309° |
| 2026-04-27 14:01 | 21.51546 | 74.07004 | 35778 ft | 406 kts | 309° |
| 2026-04-27 14:02 | 21.55633 | 74.02809 | 35775 ft | 406 kts | 309° |
| 2026-04-27 14:02 | 21.59733 | 73.98598 | 35772 ft | 406 kts | 309° |
| 2026-04-27 14:03 | 21.63800 | 73.94417 | 35772 ft | 407 kts | 310° |
| 2026-04-27 14:03 | 21.67896 | 73.90201 | 35767 ft | 408 kts | 310° |
| 2026-04-27 14:04 | 21.72043 | 73.85923 | 35760 ft | 417 kts | 310° |
| 2026-04-27 14:04 | 21.76252 | 73.81581 | 35759 ft | 419 kts | 310° |
| 2026-04-27 14:05 | 21.80446 | 73.77254 | 35758 ft | 419 kts | 310° |
| 2026-04-27 14:05 | 21.84666 | 73.72895 | 35741 ft | 420 kts | 310° |
| 2026-04-27 14:05 | 21.86774 | 73.70718 | 35415 ft | 417 kts | 310° |
| 2026-04-27 14:06 | 21.88870 | 73.68550 | 34655 ft | 422 kts | 310° |
| 2026-04-27 14:06 | 21.90984 | 73.66363 | 34191 ft | 420 kts | 310° |
| 2026-04-27 14:06 | 21.93103 | 73.64168 | 33399 ft | 424 kts | 310° |
| 2026-04-27 14:06 | 21.95219 | 73.61976 | 32856 ft | 421 kts | 311° |
| 2026-04-27 14:07 | 21.97316 | 73.59796 | 32053 ft | 425 kts | 312° |
| 2026-04-27 14:07 | 21.99443 | 73.57579 | 31363 ft | 426 kts | 313° |
| 2026-04-27 14:07 | 22.01568 | 73.55363 | 30630 ft | 423 kts | 314° |
| 2026-04-27 14:07 | 22.03684 | 73.53156 | 29582 ft | 425 kts | 315° |
| 2026-04-27 14:08 | 22.05804 | 73.50950 | 28506 ft | 423 kts | 315° |
| 2026-04-27 14:08 | 22.07932 | 73.48735 | 27383 ft | 424 kts | 315° |
| 2026-04-27 14:08 | 22.10029 | 73.46551 | 26442 ft | 421 kts | 315° |
| 2026-04-27 14:08 | 22.12129 | 73.44365 | 25578 ft | 417 kts | 315° |
| 2026-04-27 14:09 | 22.14211 | 73.42199 | 24762 ft | 411 kts | 316° |
| 2026-04-27 14:09 | 22.16255 | 73.40073 | 24142 ft | 402 kts | 316° |
| 2026-04-27 14:09 | 22.18210 | 73.38044 | 23813 ft | 385 kts | 316° |
| 2026-04-27 14:09 | 22.20116 | 73.36069 | 23714 ft | 377 kts | 316° |
| 2026-04-27 14:10 | 22.22005 | 73.34113 | 23696 ft | 377 kts | 316° |
| 2026-04-27 14:10 | 22.23903 | 73.32144 | 23696 ft | 377 kts | 316° |
| 2026-04-27 14:10 | 22.25794 | 73.30179 | 23689 ft | 377 kts | 316° |
| 2026-04-27 14:10 | 22.27692 | 73.28203 | 23688 ft | 377 kts | 316° |
| 2026-04-27 14:11 | 22.29558 | 73.26259 | 23697 ft | 377 kts | 316° |
| 2026-04-27 14:11 | 22.31443 | 73.24296 | 23553 ft | 374 kts | 316° |
| 2026-04-27 14:11 | 22.33281 | 73.22281 | 22788 ft | 379 kts | 312° |
| 2026-04-27 14:11 | 22.34990 | 73.20088 | 22060 ft | 378 kts | 309° |
| 2026-04-27 14:12 | 22.36587 | 73.17899 | 21716 ft | 362 kts | 308° |
| 2026-04-27 14:12 | 22.38098 | 73.15787 | 21298 ft | 349 kts | 308° |
| 2026-04-27 14:12 | 22.39551 | 73.13749 | 20666 ft | 346 kts | 308° |
| 2026-04-27 14:12 | 22.41021 | 73.11683 | 20022 ft | 344 kts | 308° |
| 2026-04-27 14:13 | 22.42476 | 73.09636 | 19412 ft | 342 kts | 308° |
| 2026-04-27 14:13 | 22.43922 | 73.07604 | 18788 ft | 340 kts | 308° |
| 2026-04-27 14:13 | 22.45347 | 73.05601 | 18179 ft | 338 kts | 308° |
| 2026-04-27 14:13 | 22.46798 | 73.03561 | 17507 ft | 336 kts | 308° |
| 2026-04-27 14:14 | 22.48202 | 73.01588 | 16873 ft | 333 kts | 307° |
| 2026-04-27 14:14 | 22.49608 | 72.99611 | 16264 ft | 330 kts | 307° |
| 2026-04-27 14:14 | 22.50998 | 72.97656 | 15654 ft | 327 kts | 307° |
| 2026-04-27 14:14 | 22.52382 | 72.95708 | 15037 ft | 324 kts | 307° |
| 2026-04-27 14:15 | 22.53746 | 72.93789 | 14475 ft | 321 kts | 307° |
| 2026-04-27 14:15 | 22.55101 | 72.91882 | 13901 ft | 318 kts | 307° |
| 2026-04-27 14:15 | 22.56443 | 72.89993 | 13323 ft | 315 kts | 307° |
| 2026-04-27 14:15 | 22.57757 | 72.88142 | 12715 ft | 311 kts | 306° |
| 2026-04-27 14:16 | 22.59067 | 72.86296 | 12169 ft | 306 kts | 306° |
| 2026-04-27 14:16 | 22.60359 | 72.84465 | 11592 ft | 302 kts | 305° |
| 2026-04-27 14:16 | 22.61584 | 72.82636 | 11026 ft | 299 kts | 304° |
| 2026-04-27 14:16 | 22.62775 | 72.80806 | 10480 ft | 295 kts | 303° |
| 2026-04-27 14:17 | 22.63941 | 72.78999 | 9944 ft | 291 kts | 303° |
| 2026-04-27 14:17 | 22.65075 | 72.77235 | 9408 ft | 287 kts | 303° |
| 2026-04-27 14:17 | 22.66205 | 72.75473 | 8808 ft | 283 kts | 303° |
| 2026-04-27 14:17 | 22.67323 | 72.73728 | 8204 ft | 280 kts | 303° |
| 2026-04-27 14:18 | 22.68431 | 72.71998 | 7612 ft | 278 kts | 303° |
| 2026-04-27 14:18 | 22.69526 | 72.70287 | 7031 ft | 276 kts | 303° |
| 2026-04-27 14:18 | 22.70608 | 72.68594 | 6470 ft | 274 kts | 303° |
| 2026-04-27 14:18 | 22.71688 | 72.66902 | 5906 ft | 271 kts | 303° |
| 2026-04-27 14:19 | 22.72776 | 72.65235 | 5390 ft | 267 kts | 307° |
| 2026-04-27 14:19 | 22.74261 | 72.64083 | 5155 ft | 268 kts | 339° |
| 2026-04-27 14:19 | 22.76101 | 72.63624 | 4925 ft | 273 kts | 345° |
| 2026-04-27 14:19 | 22.77936 | 72.63210 | 4697 ft | 274 kts | 346° |
| 2026-04-27 14:20 | 22.79835 | 72.62910 | 4506 ft | 274 kts | 349° |
| 2026-04-27 14:20 | 22.81714 | 72.62615 | 4383 ft | 272 kts | 344° |
| 2026-04-27 14:20 | 22.83561 | 72.62169 | 4222 ft | 272 kts | 343° |
| 2026-04-27 14:20 | 22.85390 | 72.61680 | 4061 ft | 268 kts | 336° |
| 2026-04-27 14:21 | 22.86834 | 72.60521 | 3939 ft | 257 kts | 302° |
| 2026-04-27 14:21 | 22.87357 | 72.58715 | 3825 ft | 254 kts | 268° |
| 2026-04-27 14:21 | 22.86852 | 72.56893 | 3725 ft | 256 kts | 244° |
| 2026-04-27 14:21 | 22.85866 | 72.55277 | 3691 ft | 258 kts | 233° |
| 2026-04-27 14:22 | 22.84543 | 72.53948 | 3687 ft | 264 kts | 216° |
| 2026-04-27 14:22 | 22.82852 | 72.53149 | 3690 ft | 270 kts | 201° |
| 2026-04-27 14:22 | 22.80989 | 72.52763 | 3695 ft | 275 kts | 185° |
| 2026-04-27 14:22 | 22.79097 | 72.53099 | 3654 ft | 281 kts | 160° |
| 2026-04-27 14:23 | 22.77548 | 72.54369 | 3545 ft | 288 kts | 128° |
| 2026-04-27 14:23 | 22.76790 | 72.56367 | 3425 ft | 292 kts | 96° |
| 2026-04-27 14:23 | 22.77066 | 72.58512 | 3315 ft | 290 kts | 64° |
| 2026-04-27 14:23 | 22.78267 | 72.60220 | 3195 ft | 282 kts | 33° |
| 2026-04-27 14:24 | 22.79974 | 72.61218 | 3088 ft | 277 kts | 19° |
| 2026-04-27 14:24 | 22.81755 | 72.61976 | 3039 ft | 278 kts | 16° |
| 2026-04-27 14:24 | 22.83573 | 72.62721 | 3026 ft | 279 kts | 16° |
| 2026-04-27 14:24 | 22.85387 | 72.63481 | 3031 ft | 278 kts | 17° |
| 2026-04-27 14:25 | 22.87188 | 72.64256 | 3040 ft | 279 kts | 17° |
| 2026-04-27 14:25 | 22.88991 | 72.65046 | 3037 ft | 279 kts | 18° |
| 2026-04-27 14:25 | 22.90785 | 72.65841 | 3033 ft | 278 kts | 18° |
| 2026-04-27 14:25 | 22.92555 | 72.66631 | 3031 ft | 278 kts | 18° |
| 2026-04-27 14:26 | 22.94341 | 72.67442 | 3038 ft | 278 kts | 20° |
| 2026-04-27 14:26 | 22.95974 | 72.68591 | 3045 ft | 282 kts | 38° |
| 2026-04-27 14:26 | 22.97365 | 72.70074 | 3030 ft | 285 kts | 43° |
| 2026-04-27 14:26 | 22.98729 | 72.71653 | 3043 ft | 286 kts | 43° |
| 2026-04-27 14:27 | 23.00092 | 72.73230 | 3034 ft | 285 kts | 43° |
| 2026-04-27 14:27 | 23.01466 | 72.74781 | 3032 ft | 285 kts | 42° |
| 2026-04-27 14:27 | 23.02863 | 72.76312 | 3032 ft | 284 kts | 41° |
| 2026-04-27 14:27 | 23.03794 | 72.77320 | 3029 ft | 284 kts | 41° |
| 2026-04-27 14:28 | 23.05200 | 72.78831 | 3035 ft | 285 kts | 41° |
| 2026-04-27 14:28 | 23.07090 | 72.80851 | 3027 ft | 285 kts | 40° |
| 2026-04-27 14:28 | 23.08493 | 72.82347 | 3034 ft | 285 kts | 40° |
| 2026-04-27 14:28 | 23.09909 | 72.83857 | 3030 ft | 285 kts | 41° |
| 2026-04-27 14:29 | 23.10852 | 72.84861 | 3031 ft | 285 kts | 40° |
| 2026-04-27 14:29 | 23.12718 | 72.86849 | 3033 ft | 274 kts | 41° |
| 2026-04-27 14:29 | 23.14036 | 72.88254 | 3034 ft | 256 kts | 40° |
| 2026-04-27 14:29 | 23.15260 | 72.89553 | 3061 ft | 236 kts | 40° |
| 2026-04-27 14:30 | 23.16487 | 72.90586 | 3061 ft | 211 kts | 24° |
| 2026-04-27 14:30 | 23.17375 | 72.90986 | 3030 ft | 200 kts | 8° |
| 2026-04-27 14:30 | 23.18701 | 72.91043 | 3034 ft | 189 kts | 342° |
| 2026-04-27 14:30 | 23.19860 | 72.90473 | 3039 ft | 181 kts | 316° |
| 2026-04-27 14:31 | 23.20610 | 72.89416 | 3028 ft | 176 kts | 288° |
| 2026-04-27 14:31 | 23.20831 | 72.88114 | 3039 ft | 175 kts | 274° |
| 2026-04-27 14:31 | 23.20887 | 72.86787 | 3038 ft | 176 kts | 272° |
| 2026-04-27 14:31 | 23.20923 | 72.85451 | 3028 ft | 176 kts | 271° |
| 2026-04-27 14:32 | 23.20967 | 72.84116 | 3030 ft | 177 kts | 272° |
| 2026-04-27 14:32 | 23.21020 | 72.82784 | 3036 ft | 177 kts | 272° |
| 2026-04-27 14:32 | 23.21079 | 72.81448 | 3037 ft | 177 kts | 272° |
| 2026-04-27 14:32 | 23.21141 | 72.80130 | 3028 ft | 176 kts | 273° |
| 2026-04-27 14:33 | 23.21165 | 72.78803 | 3031 ft | 175 kts | 263° |
| 2026-04-27 14:33 | 23.20705 | 72.77581 | 3034 ft | 178 kts | 240° |
| 2026-04-27 14:33 | 23.19901 | 72.76529 | 3042 ft | 183 kts | 231° |
| 2026-04-27 14:33 | 23.18996 | 72.75552 | 3036 ft | 184 kts | 229° |
| 2026-04-27 14:34 | 23.18100 | 72.74600 | 2991 ft | 178 kts | 230° |
| 2026-04-27 14:34 | 23.17231 | 72.73674 | 2717 ft | 170 kts | 230° |
| 2026-04-27 14:34 | 23.16421 | 72.72809 | 2519 ft | 159 kts | 230° |
| 2026-04-27 14:34 | 23.15655 | 72.71986 | 2229 ft | 151 kts | 230° |
| 2026-04-27 14:35 | 23.14925 | 72.71198 | 1881 ft | 146 kts | 231° |
| 2026-04-27 14:35 | 23.14215 | 72.70432 | 1609 ft | 140 kts | 232° |
| 2026-04-27 14:35 | 23.13535 | 72.69700 | 1431 ft | 136 kts | 231° |
| 2026-04-27 14:35 | 23.12880 | 72.68995 | 1262 ft | 129 kts | 230° |
| 2026-04-27 14:36 | 23.12247 | 72.68313 | 1105 ft | 127 kts | 230° |
| 2026-04-27 14:36 | 23.11622 | 72.67627 | 960 ft | 129 kts | 228° |
| 2026-04-27 14:36 | 23.10998 | 72.66917 | 804 ft | 131 kts | 229° |
| 2026-04-27 14:36 | 23.10370 | 72.66186 | 684 ft | 134 kts | 229° |
| 2026-04-27 14:37 | 23.09698 | 72.65497 | 573 ft | 132 kts | 223° |
| 2026-04-27 14:37 | 23.09024 | 72.64826 | 411 ft | 132 kts | 224° |
| 2026-04-27 14:37 | 23.08380 | 72.64133 | 222 ft | 126 kts | 225° |
| 2026-04-27 14:37 | 23.07834 | 72.63569 | 206 ft | 74 kts | 219° |
| 2026-04-27 14:38 | 23.07668 | 72.63389 | 204 ft | 12 kts | 226° |
| 2026-04-27 14:38 | 23.07611 | 72.63327 | 204 ft | 11 kts | 225° |
| 2026-04-27 14:38 | 23.07529 | 72.63240 | 206 ft | 25 kts | 224° |
| 2026-04-27 14:38 | 23.07358 | 72.63061 | 201 ft | 42 kts | 225° |
| 2026-04-27 14:39 | 23.07207 | 72.62880 | 193 ft | 24 kts | 246° |
| 2026-04-27 14:39 | 23.07170 | 72.62741 | 205 ft | 13 kts | 254° |
| 2026-04-27 14:39 | 23.07145 | 72.62645 | 206 ft | 13 kts | 254° |
| 2026-04-27 14:39 | 23.07113 | 72.62550 | 202 ft | 14 kts | 234° |
| 2026-04-27 14:40 | 23.07029 | 72.62457 | 197 ft | 22 kts | 225° |
| 2026-04-27 14:40 | 23.06898 | 72.62316 | 199 ft | 24 kts | 224° |
| 2026-04-27 14:40 | 23.06846 | 72.62255 | 199 ft | 5 kts | 248° |
| 2026-04-27 14:40 | 23.06868 | 72.62202 | 205 ft | 11 kts | 312° |
| 2026-04-27 14:41 | 23.06937 | 72.62126 | 196 ft | 17 kts | 315° |
| 2026-04-27 14:41 | 23.06945 | 72.62041 | 206 ft | 14 kts | 238° |
| 2026-04-27 14:41 | 23.06973 | 72.61957 | 199 ft | 15 kts | 316° |
| 2026-04-27 14:41 | 23.07031 | 72.61904 | 196 ft | 10 kts | 336° |
| 2026-04-27 14:42 | 23.07090 | 72.61915 | 197 ft | 8 kts | 38° |
| 2026-04-27 14:42 | 23.07112 | 72.61939 | 197 ft | 0 kts | 46° |